Time;durP1;ratioP1;P1;durP2;ratioP2;P2;SDS_P1;SDS_P2;PMS_P1;PMS_P2;Temp;Humidity;BMP_temperature;BMP_pressure;BME280_temperature;BME280_humidity;BME280_pressure;Samples;Min_cycle;Max_cycle;Signal;HPM_P1;HPM_P2
2023/12/14 00:01:21;;;;;;;1.88;1.70;;;;;;;;;;5118436;28;20225;-62
2023/12/14 00:03:49;;;;;;;2.72;1.90;;;;;;;;;;5118561;28;20217;-62
2023/12/14 00:06:16;;;;;;;2.58;2.10;;;;;;;;;;5118494;28;20218;-62
2023/12/14 00:08:43;;;;;;;2.10;1.90;;;;;;;;;;5118394;28;20232;-62
2023/12/14 00:11:12;;;;;;;2.40;1.80;;;;;;;;;;5118100;28;20201;-62
2023/12/14 00:13:40;;;;;;;2.63;2.00;;;;;;;;;;5118150;28;20203;-62
2023/12/14 00:16:08;;;;;;;1.85;1.67;;;;;;;;;;5118277;28;20235;-62
2023/12/14 00:18:36;;;;;;;2.10;1.90;;;;;;;;;;5118037;28;20647;-62
2023/12/14 00:21:03;;;;;;;2.08;1.67;;;;;;;;;;5118382;28;20202;-62
2023/12/14 00:23:31;;;;;;;2.05;1.85;;;;;;;;;;5117847;28;20305;-62
2023/12/14 00:25:58;;;;;;;3.33;1.80;;;;;;;;;;5117841;28;20213;-62
2023/12/14 00:28:25;;;;;;;2.20;1.90;;;;;;;;;;5118229;28;20227;-62
2023/12/14 00:30:54;;;;;;;2.47;1.95;;;;;;;;;;5118204;28;20582;-62
2023/12/14 00:33:22;;;;;;;2.10;1.80;;;;;;;;;;5118205;28;20213;-62
2023/12/14 00:35:49;;;;;;;2.50;1.70;;;;;;;;;;5118164;28;20241;-62
2023/12/14 00:38:17;;;;;;;3.78;1.92;;;;;;;;;;5117948;28;20210;-62
2023/12/14 00:40:45;;;;;;;2.25;1.70;;;;;;;;;;5118213;28;20225;-62
2023/12/14 00:43:12;;;;;;;2.58;1.67;;;;;;;;;;5118003;28;20209;-62
2023/12/14 00:45:41;;;;;;;2.15;1.63;;;;;;;;;;5118119;28;20217;-62
2023/12/14 00:48:09;;;;;;;1.90;1.65;;;;;;;;;;5117773;28;20361;-62
2023/12/14 00:50:37;;;;;;;1.92;1.77;;;;;;;;;;5117814;28;20601;-62
2023/12/14 00:53:04;;;;;;;2.17;1.60;;;;;;;;;;5117967;28;20209;-62
2023/12/14 00:55:32;;;;;;;2.03;1.50;;;;;;;;;;5117439;28;20203;-62
2023/12/14 00:57:59;;;;;;;1.75;1.55;;;;;;;;;;5117734;28;20566;-62
2023/12/14 01:00:26;;;;;;;2.00;1.52;;;;;;;;;;5117219;28;20214;-62
2023/12/14 01:02:54;;;;;;;1.92;1.70;;;;;;;;;;5117720;28;20504;-62
2023/12/14 01:05:23;;;;;;;2.25;1.90;;;;;;;;;;5117871;28;20209;-62
2023/12/14 01:07:50;;;;;;;1.88;1.55;;;;;;;;;;5117819;28;20203;-62
2023/12/14 01:10:18;;;;;;;1.67;1.58;;;;;;;;;;5118016;28;20203;-62
2023/12/14 01:12:45;;;;;;;1.92;1.73;;;;;;;;;;5117625;28;20203;-62
2023/12/14 01:15:12;;;;;;;2.05;1.77;;;;;;;;;;5117456;28;20260;-62
2023/12/14 01:17:40;;;;;;;1.98;1.60;;;;;;;;;;5117783;28;20203;-62
2023/12/14 01:20:08;;;;;;;2.30;1.70;;;;;;;;;;5117803;28;20198;-62
2023/12/14 01:22:37;;;;;;;2.00;1.67;;;;;;;;;;5117601;28;20204;-62
2023/12/14 01:25:04;;;;;;;2.22;1.40;;;;;;;;;;5117871;28;20203;-62
2023/12/14 01:27:31;;;;;;;1.73;1.63;;;;;;;;;;5117643;28;20203;-62
2023/12/14 01:29:59;;;;;;;1.70;1.60;;;;;;;;;;5117372;28;20231;-62
2023/12/14 01:32:26;;;;;;;1.80;1.40;;;;;;;;;;5117350;28;20203;-62
2023/12/14 01:34:54;;;;;;;1.73;1.35;;;;;;;;;;5117851;28;20586;-62
2023/12/14 01:37:21;;;;;;;1.90;1.65;;;;;;;;;;5121831;28;20309;-62
2023/12/14 01:39:50;;;;;;;1.75;1.50;;;;;;;;;;5121277;28;20206;-62
2023/12/14 01:42:17;;;;;;;1.77;1.50;;;;;;;;;;5121354;28;20207;-62
2023/12/14 01:44:45;;;;;;;1.90;1.80;;;;;;;;;;5121262;28;20203;-62
2023/12/14 01:47:12;;;;;;;1.85;1.60;;;;;;;;;;5121198;28;20206;-62
2023/12/14 01:49:41;;;;;;;2.00;1.70;;;;;;;;;;5120836;28;20228;-62
2023/12/14 01:52:08;;;;;;;1.92;1.73;;;;;;;;;;5121403;28;20203;-62
2023/12/14 01:54:35;;;;;;;1.80;1.58;;;;;;;;;;5121155;28;20480;-62
2023/12/14 01:57:04;;;;;;;1.67;1.55;;;;;;;;;;5120771;28;20214;-62
2023/12/14 01:59:32;;;;;;;2.00;1.60;;;;;;;;;;5121064;28;20199;-62
2023/12/14 02:02:02;;;;;;;1.60;1.50;;;;;;;;;;5121020;28;20547;-62
2023/12/14 02:04:30;;;;;;;1.50;1.40;;;;;;;;;;5120853;28;20210;-62
2023/12/14 02:06:58;;;;;;;1.80;1.60;;;;;;;;;;5120877;28;20233;-62
2023/12/14 02:09:25;;;;;;;1.70;1.40;;;;;;;;;;5120724;28;20559;-62
2023/12/14 02:11:52;;;;;;;1.63;1.50;;;;;;;;;;5120646;28;20236;-62
2023/12/14 02:14:23;;;;;;;1.60;1.40;;;;;;;;;;5120254;28;20238;-62
2023/12/14 02:16:51;;;;;;;1.58;1.48;;;;;;;;;;5120584;28;20264;-62
2023/12/14 02:19:18;;;;;;;1.70;1.50;;;;;;;;;;5120400;28;20214;-63
2023/12/14 02:21:45;;;;;;;1.60;1.50;;;;;;;;;;5120411;28;20210;-63
2023/12/14 02:24:14;;;;;;;1.55;1.45;;;;;;;;;;5120752;28;20203;-62
2023/12/14 02:26:42;;;;;;;2.00;1.50;;;;;;;;;;5120574;28;20207;-62
2023/12/14 02:29:09;;;;;;;1.45;1.35;;;;;;;;;;5120414;28;20494;-62
2023/12/14 02:31:36;;;;;;;1.30;1.20;;;;;;;;;;5120139;28;20566;-63
2023/12/14 02:34:04;;;;;;;1.50;1.40;;;;;;;;;;5120583;28;20207;-62
2023/12/14 02:36:31;;;;;;;1.45;1.33;;;;;;;;;;5119878;28;20207;-62
2023/12/14 02:38:58;;;;;;;1.50;1.40;;;;;;;;;;5120258;28;20199;-62
2023/12/14 02:41:27;;;;;;;1.65;1.55;;;;;;;;;;5120033;28;20195;-62
2023/12/14 02:43:55;;;;;;;1.85;1.65;;;;;;;;;;5120021;28;20214;-63
2023/12/14 02:46:22;;;;;;;1.50;1.38;;;;;;;;;;5119501;28;20516;-63
2023/12/14 02:48:49;;;;;;;1.90;1.40;;;;;;;;;;5119668;28;20230;-62
2023/12/14 02:51:16;;;;;;;1.67;1.58;;;;;;;;;;5119677;28;20203;-62
2023/12/14 02:53:44;;;;;;;1.50;1.40;;;;;;;;;;5119880;28;20236;-62
2023/12/14 02:56:12;;;;;;;1.42;1.33;;;;;;;;;;5119623;28;20213;-62
2023/12/14 02:58:40;;;;;;;1.30;1.20;;;;;;;;;;5120029;28;20489;-62
2023/12/14 03:01:07;;;;;;;1.55;1.45;;;;;;;;;;5119511;28;20493;-62
2023/12/14 03:03:34;;;;;;;1.70;1.33;;;;;;;;;;5119922;28;20650;-62
2023/12/14 03:06:01;;;;;;;1.42;1.33;;;;;;;;;;5119662;28;20222;-62
2023/12/14 03:08:29;;;;;;;1.50;1.33;;;;;;;;;;5119241;28;20214;-62
2023/12/14 03:10:57;;;;;;;1.70;1.50;;;;;;;;;;5119327;28;20203;-62
2023/12/14 03:13:24;;;;;;;1.13;1.05;;;;;;;;;;5119590;28;20213;-62
2023/12/14 03:15:53;;;;;;;1.38;1.17;;;;;;;;;;5119068;28;20235;-62
2023/12/14 03:18:20;;;;;;;1.40;1.23;;;;;;;;;;5119454;28;20210;-62
2023/12/14 03:20:48;;;;;;;1.30;1.20;;;;;;;;;;5119157;28;20206;-62
2023/12/14 03:23:15;;;;;;;1.50;1.40;;;;;;;;;;5119318;28;20497;-62
2023/12/14 03:25:43;;;;;;;1.45;1.35;;;;;;;;;;5119133;28;20483;-62
2023/12/14 03:28:10;;;;;;;1.33;1.23;;;;;;;;;;5119132;28;20203;-62
2023/12/14 03:30:37;;;;;;;1.50;1.40;;;;;;;;;;5118984;28;20497;-62
2023/12/14 03:33:07;;;;;;;1.55;1.45;;;;;;;;;;5119076;28;20203;-62
2023/12/14 03:35:35;;;;;;;1.30;1.20;;;;;;;;;;5118710;28;20225;-62
2023/12/14 03:38:03;;;;;;;1.50;1.40;;;;;;;;;;5118818;28;20286;-62
2023/12/14 03:40:30;;;;;;;1.35;1.25;;;;;;;;;;5119043;28;20199;-62
2023/12/14 03:42:58;;;;;;;1.48;1.30;;;;;;;;;;5119034;28;20215;-62
2023/12/14 03:45:25;;;;;;;1.60;1.50;;;;;;;;;;5118586;28;20213;-62
2023/12/14 03:47:52;;;;;;;1.55;1.45;;;;;;;;;;5118515;28;20214;-62
2023/12/14 03:50:21;;;;;;;1.77;1.40;;;;;;;;;;5118602;28;20242;-63
2023/12/14 03:52:49;;;;;;;1.30;1.20;;;;;;;;;;5118620;28;20582;-62
2023/12/14 03:55:16;;;;;;;1.50;1.40;;;;;;;;;;5118575;28;20210;-62
2023/12/14 03:57:43;;;;;;;1.35;1.25;;;;;;;;;;5117509;28;20230;-62
2023/12/14 04:00:12;;;;;;;1.50;1.40;;;;;;;;;;5118605;28;20206;-62
2023/12/14 04:02:40;;;;;;;1.50;1.40;;;;;;;;;;5118341;28;20222;-62
2023/12/14 04:05:08;;;;;;;1.30;1.20;;;;;;;;;;5118343;28;20209;-62
2023/12/14 04:07:40;;;;;;;1.13;1.02;;;;;;;;;;5118352;28;20285;-62
2023/12/14 04:10:07;;;;;;;1.25;1.13;;;;;;;;;;5118086;28;20233;-62
2023/12/14 04:12:35;;;;;;;1.40;1.30;;;;;;;;;;5117949;28;20210;-62
2023/12/14 04:15:02;;;;;;;1.25;1.15;;;;;;;;;;5117763;28;20238;-62
2023/12/14 04:17:31;;;;;;;1.45;1.35;;;;;;;;;;5118032;28;20213;-62
2023/12/14 04:19:59;;;;;;;1.33;1.23;;;;;;;;;;5118283;28;20538;-62
2023/12/14 04:22:26;;;;;;;1.10;1.00;;;;;;;;;;5118060;28;20203;-62
2023/12/14 04:24:55;;;;;;;1.30;1.15;;;;;;;;;;5118075;28;20203;-62
2023/12/14 04:27:26;;;;;;;1.25;1.15;;;;;;;;;;5117873;28;20203;-62
2023/12/14 04:29:54;;;;;;;1.45;1.35;;;;;;;;;;5118130;28;20227;-62
2023/12/14 04:32:21;;;;;;;1.40;1.30;;;;;;;;;;5117706;28;20198;-62
2023/12/14 04:34:49;;;;;;;1.50;1.40;;;;;;;;;;5117872;28;20203;-62
2023/12/14 04:37:16;;;;;;;1.40;1.30;;;;;;;;;;5117240;28;20489;-62
2023/12/14 04:39:44;;;;;;;1.35;1.23;;;;;;;;;;5117642;28;20211;-62
2023/12/14 04:42:13;;;;;;;1.13;1.00;;;;;;;;;;5117984;28;20203;-62
2023/12/14 04:44:40;;;;;;;1.30;1.20;;;;;;;;;;5118097;28;20212;-62
2023/12/14 04:47:08;;;;;;;1.40;1.25;;;;;;;;;;5117426;28;20323;-62
2023/12/14 04:49:35;;;;;;;1.50;1.40;;;;;;;;;;5117592;28;20230;-62
2023/12/14 04:52:02;;;;;;;1.30;1.20;;;;;;;;;;5117648;28;20203;-62
2023/12/14 04:54:30;;;;;;;1.40;1.30;;;;;;;;;;5117829;28;20213;-62
2023/12/14 04:56:57;;;;;;;1.27;1.17;;;;;;;;;;5117203;28;20209;-62
2023/12/14 04:59:26;;;;;;;1.45;1.35;;;;;;;;;;5117555;28;20302;-62
2023/12/14 05:01:53;;;;;;;1.60;1.50;;;;;;;;;;5117457;28;20226;-62
2023/12/14 05:04:21;;;;;;;2.17;1.40;;;;;;;;;;5117570;28;20210;-62
2023/12/14 05:06:48;;;;;;;1.65;1.27;;;;;;;;;;5117446;28;20214;-62
2023/12/14 05:09:16;;;;;;;1.23;1.13;;;;;;;;;;5118072;28;20207;-62
2023/12/14 05:11:43;;;;;;;1.35;1.25;;;;;;;;;;5121581;28;20203;-62
2023/12/14 05:14:11;;;;;;;1.20;1.10;;;;;;;;;;5120981;28;20268;-62
2023/12/14 05:16:39;;;;;;;1.40;1.30;;;;;;;;;;5121221;28;20203;-62
2023/12/14 05:19:07;;;;;;;1.42;1.33;;;;;;;;;;5121104;28;20213;-62
2023/12/14 05:21:34;;;;;;;1.25;1.15;;;;;;;;;;5121055;28;20203;-62
2023/12/14 05:24:02;;;;;;;1.27;1.17;;;;;;;;;;5121185;28;20210;-62
2023/12/14 05:26:30;;;;;;;1.30;1.20;;;;;;;;;;5120918;28;20602;-63
2023/12/14 05:28:57;;;;;;;1.20;1.10;;;;;;;;;;5120991;28;20203;-62
2023/12/14 05:31:24;;;;;;;1.45;1.35;;;;;;;;;;5120417;28;20226;-62
2023/12/14 05:33:53;;;;;;;1.33;1.23;;;;;;;;;;5120559;28;20203;-62
2023/12/14 05:36:21;;;;;;;1.15;1.00;;;;;;;;;;5120779;28;20207;-62
2023/12/14 05:38:48;;;;;;;1.30;1.20;;;;;;;;;;5120904;28;20199;-62
2023/12/14 05:41:16;;;;;;;1.23;1.13;;;;;;;;;;5120843;27;20199;-62
2023/12/14 05:43:43;;;;;;;1.27;1.10;;;;;;;;;;5119724;28;20469;-62
2023/12/14 05:46:10;;;;;;;1.70;1.20;;;;;;;;;;5120080;27;20203;-62
2023/12/14 05:48:39;;;;;;;1.13;1.02;;;;;;;;;;5120658;28;20207;-62
2023/12/14 05:51:08;;;;;;;1.00;0.90;;;;;;;;;;5120338;28;20222;-63
2023/12/14 05:53:39;;;;;;;1.17;1.08;;;;;;;;;;5119837;28;20214;-62
2023/12/14 05:56:07;;;;;;;1.20;1.10;;;;;;;;;;5119598;28;20198;-62
2023/12/14 05:58:34;;;;;;;1.08;1.00;;;;;;;;;;5119690;27;20209;-62
2023/12/14 06:01:02;;;;;;;1.10;1.00;;;;;;;;;;5118399;28;20198;-62
2023/12/14 06:03:31;;;;;;;1.85;1.10;;;;;;;;;;5118708;28;20582;-62
2023/12/14 06:05:58;;;;;;;1.23;1.13;;;;;;;;;;5118789;28;20214;-62
2023/12/14 06:08:27;;;;;;;1.23;1.13;;;;;;;;;;5118532;28;20214;-62
2023/12/14 06:10:55;;;;;;;1.10;1.00;;;;;;;;;;5118351;28;20242;-62
2023/12/14 06:13:22;;;;;;;1.02;0.93;;;;;;;;;;5117431;28;20203;-62
2023/12/14 06:15:49;;;;;;;1.20;1.10;;;;;;;;;;5117197;28;20250;-62
2023/12/14 06:18:17;;;;;;;1.00;1.00;;;;;;;;;;5117277;28;20221;-62
2023/12/14 06:20:44;;;;;;;1.05;1.00;;;;;;;;;;5103514;28;20702;-62
2023/12/14 06:23:12;;;;;;;1.00;0.90;;;;;;;;;;5097343;28;20196;-63
2023/12/14 06:25:40;;;;;;;1.20;1.10;;;;;;;;;;5097225;28;20203;-62
2023/12/14 06:28:08;;;;;;;1.33;0.80;;;;;;;;;;5097901;28;20243;-62
2023/12/14 06:30:35;;;;;;;1.20;1.10;;;;;;;;;;5096567;28;20234;-62
2023/12/14 06:33:03;;;;;;;1.10;1.00;;;;;;;;;;5096945;28;20207;-62
2023/12/14 06:35:30;;;;;;;1.35;1.10;;;;;;;;;;5096681;28;20196;-62
2023/12/14 06:37:57;;;;;;;1.10;1.00;;;;;;;;;;5097144;28;20615;-62
2023/12/14 06:40:25;;;;;;;1.13;1.02;;;;;;;;;;5097672;28;20192;-62
2023/12/14 06:42:53;;;;;;;1.02;0.95;;;;;;;;;;5096987;28;20211;-62
2023/12/14 06:45:21;;;;;;;0.90;0.90;;;;;;;;;;5095968;28;20595;-62
2023/12/14 06:47:49;;;;;;;1.75;1.10;;;;;;;;;;5096362;28;20685;-63
2023/12/14 06:50:17;;;;;;;1.10;1.00;;;;;;;;;;5095919;28;20263;-62
2023/12/14 06:52:44;;;;;;;0.93;0.90;;;;;;;;;;5096576;28;20214;-62
2023/12/14 06:55:14;;;;;;;1.27;1.00;;;;;;;;;;5095898;28;20685;-62
2023/12/14 06:57:41;;;;;;;0.93;0.90;;;;;;;;;;5096574;28;20199;-62
2023/12/14 07:00:11;;;;;;;1.10;1.00;;;;;;;;;;5097294;28;20222;-62
2023/12/14 07:02:39;;;;;;;1.25;1.05;;;;;;;;;;5096595;28;20208;-62
2023/12/14 07:05:06;;;;;;;1.50;1.00;;;;;;;;;;5096643;28;20824;-62
2023/12/14 07:07:33;;;;;;;1.05;1.05;;;;;;;;;;5096439;28;20333;-62
2023/12/14 07:10:01;;;;;;;1.00;1.00;;;;;;;;;;5096373;28;20234;-62
2023/12/14 07:12:28;;;;;;;2.00;1.00;;;;;;;;;;5097173;28;20203;-62
2023/12/14 07:14:56;;;;;;;1.50;1.08;;;;;;;;;;5097698;28;20261;-62
2023/12/14 07:17:24;;;;;;;1.23;0.95;;;;;;;;;;5097146;28;20208;-62
2023/12/14 07:19:53;;;;;;;1.05;0.93;;;;;;;;;;5097375;28;20216;-62
2023/12/14 07:22:20;;;;;;;1.35;1.05;;;;;;;;;;5097042;28;20486;-62
2023/12/14 07:24:48;;;;;;;1.10;1.00;;;;;;;;;;5097398;28;20203;-62
2023/12/14 07:27:15;;;;;;;1.00;0.90;;;;;;;;;;5096760;28;20210;-62
2023/12/14 07:29:43;;;;;;;1.20;1.08;;;;;;;;;;5096186;28;20485;-63
2023/12/14 07:32:10;;;;;;;1.05;0.95;;;;;;;;;;5096043;28;20204;-62
2023/12/14 07:34:39;;;;;;;1.27;0.95;;;;;;;;;;5096264;28;20578;-62
2023/12/14 07:37:06;;;;;;;1.10;1.00;;;;;;;;;;5096140;28;20227;-63
2023/12/14 07:39:34;;;;;;;1.38;1.27;;;;;;;;;;5096384;28;20208;-62
2023/12/14 07:42:01;;;;;;;1.27;1.10;;;;;;;;;;5096122;28;20206;-62
2023/12/14 07:44:29;;;;;;;1.50;1.00;;;;;;;;;;5096143;28;20482;-62
2023/12/14 07:46:57;;;;;;;1.20;1.10;;;;;;;;;;5095878;28;20571;-62
2023/12/14 07:49:24;;;;;;;1.10;1.00;;;;;;;;;;5096075;28;20601;-62
2023/12/14 07:51:53;;;;;;;1.58;1.00;;;;;;;;;;5096457;28;20242;-63
2023/12/14 07:54:21;;;;;;;1.10;1.00;;;;;;;;;;5095931;28;20649;-62
2023/12/14 07:56:48;;;;;;;2.85;1.10;;;;;;;;;;5095443;28;20215;-62
2023/12/14 07:59:15;;;;;;;1.02;0.93;;;;;;;;;;5095363;28;20204;-62
2023/12/14 08:01:43;;;;;;;1.20;1.10;;;;;;;;;;5095792;28;20200;-62
2023/12/14 08:04:11;;;;;;;1.40;1.20;;;;;;;;;;5096009;28;20203;-62
2023/12/14 08:06:39;;;;;;;2.35;1.00;;;;;;;;;;5096751;28;20490;-62
2023/12/14 08:09:08;;;;;;;2.53;1.00;;;;;;;;;;5096256;28;20203;-62
2023/12/14 08:11:35;;;;;;;1.15;1.02;;;;;;;;;;5096833;28;20223;-62
2023/12/14 08:14:03;;;;;;;1.63;0.95;;;;;;;;;;5094861;28;20591;-62
2023/12/14 08:16:31;;;;;;;1.70;1.02;;;;;;;;;;5095507;28;20204;-62
2023/12/14 08:18:58;;;;;;;1.33;1.20;;;;;;;;;;5096219;28;20199;-62
2023/12/14 08:21:26;;;;;;;1.20;1.02;;;;;;;;;;5096353;28;20200;-62
2023/12/14 08:23:53;;;;;;;1.38;1.00;;;;;;;;;;5095814;28;20615;-62
2023/12/14 08:26:22;;;;;;;1.27;1.00;;;;;;;;;;5096242;28;20499;-62
2023/12/14 08:28:49;;;;;;;1.00;0.90;;;;;;;;;;5095806;28;20196;-62
2023/12/14 08:31:17;;;;;;;1.95;1.05;;;;;;;;;;5096424;28;20234;-62
2023/12/14 08:33:44;;;;;;;1.25;0.90;;;;;;;;;;5095244;28;20203;-62
2023/12/14 08:36:12;;;;;;;1.00;0.90;;;;;;;;;;5095386;28;20235;-62
2023/12/14 08:38:39;;;;;;;1.10;1.00;;;;;;;;;;5096021;28;20210;-62
2023/12/14 08:41:06;;;;;;;1.13;1.02;;;;;;;;;;5095913;28;20614;-62
2023/12/14 08:43:35;;;;;;;1.17;1.08;;;;;;;;;;5095878;28;20211;-62
2023/12/14 08:46:02;;;;;;;1.10;1.00;;;;;;;;;;5099410;28;20203;-62
2023/12/14 08:48:30;;;;;;;1.55;1.00;;;;;;;;;;5099990;28;20581;-62
2023/12/14 08:50:58;;;;;;;1.30;1.00;;;;;;;;;;5099727;28;20224;-62
2023/12/14 08:53:25;;;;;;;1.35;1.02;;;;;;;;;;5099987;28;20204;-62
2023/12/14 08:55:53;;;;;;;1.20;1.00;;;;;;;;;;5099630;28;20311;-62
2023/12/14 08:58:20;;;;;;;1.35;1.08;;;;;;;;;;5099615;28;20214;-62
2023/12/14 09:00:52;;;;;;;1.10;1.00;;;;;;;;;;5099390;28;20261;-62
2023/12/14 09:03:20;;;;;;;1.27;0.90;;;;;;;;;;5099256;28;20495;-62
2023/12/14 09:05:48;;;;;;;1.00;0.90;;;;;;;;;;5099500;28;20203;-62
2023/12/14 09:08:15;;;;;;;1.80;0.98;;;;;;;;;;5100118;28;20206;-62
2023/12/14 09:10:42;;;;;;;1.13;1.00;;;;;;;;;;5099875;28;20239;-62
2023/12/14 09:59:29;;;;;;;2.55;1.05;;;;;;;;;;5113469;27;20936;-63
2023/12/14 10:02:10;;;;;;;2.72;1.25;;;;;;;;;;5113014;28;20213;-63
2023/12/14 10:04:37;;;;;;;4.32;1.30;;;;;;;;;;5112697;28;20202;-63
2023/12/14 10:07:06;;;;;;;4.00;1.13;;;;;;;;;;5112767;28;20297;-63
2023/12/14 10:09:34;;;;;;;1.27;1.10;;;;;;;;;;5112727;28;20290;-63
2023/12/14 10:12:05;;;;;;;3.42;1.20;;;;;;;;;;5112624;28;20203;-63
2023/12/14 10:14:34;;;;;;;2.38;1.20;;;;;;;;;;5113135;28;20214;-63
2023/12/14 10:17:15;;;;;;;2.20;1.10;;;;;;;;;;5112421;28;20237;-63
2023/12/14 10:19:44;;;;;;;2.05;1.35;;;;;;;;;;5112076;28;20207;-63
2023/12/14 10:22:11;;;;;;;1.90;1.30;;;;;;;;;;5112151;28;20203;-63
2023/12/14 10:24:38;;;;;;;1.92;1.27;;;;;;;;;;5112774;28;20502;-63
2023/12/14 10:27:08;;;;;;;2.70;1.00;;;;;;;;;;5112222;28;20222;-63
2023/12/14 10:29:39;;;;;;;2.28;1.20;;;;;;;;;;5112418;28;20249;-63
2023/12/14 10:32:08;;;;;;;3.03;1.48;;;;;;;;;;5110979;28;20265;-63
2023/12/14 10:34:36;;;;;;;1.98;1.10;;;;;;;;;;5111696;28;20214;-63
2023/12/14 10:37:06;;;;;;;2.92;1.27;;;;;;;;;;5111421;28;20199;-63
2023/12/14 10:39:35;;;;;;;3.58;1.38;;;;;;;;;;5110906;28;20210;-63
2023/12/14 10:42:04;;;;;;;2.10;1.20;;;;;;;;;;5111873;28;20318;-63
2023/12/14 10:44:32;;;;;;;2.60;1.42;;;;;;;;;;5111935;28;20492;-63
2023/12/14 10:47:00;;;;;;;1.92;1.23;;;;;;;;;;5111675;28;20214;-63
2023/12/14 10:49:28;;;;;;;2.55;1.30;;;;;;;;;;5111107;28;20203;-63
2023/12/14 10:51:56;;;;;;;2.33;1.40;;;;;;;;;;5110997;28;20207;-63
2023/12/14 10:54:26;;;;;;;2.60;1.20;;;;;;;;;;5111564;28;20260;-63
2023/12/14 10:56:56;;;;;;;1.98;1.08;;;;;;;;;;5111717;28;20520;-63
2023/12/14 10:59:23;;;;;;;2.17;1.40;;;;;;;;;;5103919;28;20239;-63
2023/12/14 11:01:54;;;;;;;3.03;1.20;;;;;;;;;;5097640;28;20577;-63
2023/12/14 11:04:24;;;;;;;1.70;1.30;;;;;;;;;;5097058;28;20257;-63
2023/12/14 11:06:51;;;;;;;2.90;1.27;;;;;;;;;;5096128;28;20573;-63
2023/12/14 11:09:21;;;;;;;2.10;1.33;;;;;;;;;;5097362;28;20219;-63
2023/12/14 11:11:57;;;;;;;1.67;1.38;;;;;;;;;;5098164;28;20235;-63
2023/12/14 11:14:25;;;;;;;1.77;1.13;;;;;;;;;;5096947;28;20265;-63
2023/12/14 11:16:55;;;;;;;1.58;1.13;;;;;;;;;;5097626;28;20214;-63
2023/12/14 11:19:31;;;;;;;1.48;1.38;;;;;;;;;;5096973;28;20210;-63
2023/12/14 11:22:10;;;;;;;1.38;1.10;;;;;;;;;;5096897;28;20214;-63
2023/12/14 11:24:38;;;;;;;2.80;1.33;;;;;;;;;;5097756;28;20203;-63
2023/12/14 11:27:05;;;;;;;1.38;1.20;;;;;;;;;;5096672;28;20203;-63
2023/12/14 11:29:33;;;;;;;1.30;1.20;;;;;;;;;;5096780;28;20196;-63
2023/12/14 11:32:00;;;;;;;1.58;1.17;;;;;;;;;;5097150;28;20214;-63
2023/12/14 11:34:27;;;;;;;1.58;1.10;;;;;;;;;;5096914;28;20203;-63
2023/12/14 11:36:56;;;;;;;1.63;1.35;;;;;;;;;;5096796;28;20199;-63
2023/12/14 11:39:24;;;;;;;2.15;1.40;;;;;;;;;;5096783;28;20469;-63
2023/12/14 11:42:00;;;;;;;1.15;1.05;;;;;;;;;;5096093;28;20203;-63
2023/12/14 11:44:27;;;;;;;1.77;1.30;;;;;;;;;;5095452;28;20195;-63
2023/12/14 11:46:55;;;;;;;2.00;1.27;;;;;;;;;;5096292;28;20226;-63
2023/12/14 11:49:22;;;;;;;2.08;1.58;;;;;;;;;;5096302;28;20231;-63
2023/12/14 11:51:52;;;;;;;2.15;1.25;;;;;;;;;;5096615;28;20231;-63
2023/12/14 11:54:21;;;;;;;1.50;1.30;;;;;;;;;;5095773;28;20226;-63
2023/12/14 11:56:49;;;;;;;1.52;1.40;;;;;;;;;;5096592;28;20351;-63
2023/12/14 11:59:18;;;;;;;1.52;1.10;;;;;;;;;;5095148;28;20226;-63
2023/12/14 12:02:00;;;;;;;2.28;1.40;;;;;;;;;;5096277;28;20813;-63
2023/12/14 12:04:27;;;;;;;1.48;1.20;;;;;;;;;;5093061;28;20316;-63
2023/12/14 12:07:02;;;;;;;1.35;1.17;;;;;;;;;;5096050;28;20204;-63
2023/12/14 12:09:37;;;;;;;1.55;1.25;;;;;;;;;;5095397;28;20226;-63
2023/12/14 12:12:08;;;;;;;2.15;1.10;;;;;;;;;;5094344;28;20210;-63
2023/12/14 12:14:36;;;;;;;1.42;1.33;;;;;;;;;;5095899;28;20208;-63
2023/12/14 12:17:04;;;;;;;1.85;1.42;;;;;;;;;;5095923;28;20669;-63
2023/12/14 12:19:31;;;;;;;1.60;1.50;;;;;;;;;;5095367;28;20580;-63
2023/12/14 12:21:59;;;;;;;2.25;1.05;;;;;;;;;;5095489;28;20238;-63
2023/12/14 12:24:26;;;;;;;2.00;1.42;;;;;;;;;;5096268;28;20199;-63
2023/12/14 12:26:55;;;;;;;1.48;1.27;;;;;;;;;;5095757;28;20208;-63
2023/12/14 12:29:22;;;;;;;1.60;1.50;;;;;;;;;;5096044;28;20658;-63
2023/12/14 12:31:50;;;;;;;2.05;1.42;;;;;;;;;;5095612;28;20214;-63
2023/12/14 12:34:19;;;;;;;1.42;1.23;;;;;;;;;;5095150;28;20210;-63
2023/12/14 12:36:51;;;;;;;2.55;1.20;;;;;;;;;;5095300;28;20206;-63
2023/12/14 12:39:19;;;;;;;2.00;1.25;;;;;;;;;;5093982;28;20299;-63
2023/12/14 12:41:46;;;;;;;3.15;1.40;;;;;;;;;;5094242;28;20641;-63
2023/12/14 12:44:15;;;;;;;1.27;1.08;;;;;;;;;;5094099;28;20210;-63
2023/12/14 12:46:42;;;;;;;1.50;1.20;;;;;;;;;;5095207;28;20692;-63
2023/12/14 12:49:09;;;;;;;1.42;1.25;;;;;;;;;;5095604;28;20227;-63
2023/12/14 12:51:37;;;;;;;1.65;1.27;;;;;;;;;;5095143;28;20211;-63
2023/12/14 12:54:05;;;;;;;1.15;1.05;;;;;;;;;;5094710;28;20589;-63
2023/12/14 12:56:32;;;;;;;2.05;1.08;;;;;;;;;;5094788;28;20223;-63
2023/12/14 12:58:59;;;;;;;1.25;1.10;;;;;;;;;;5094293;28;20224;-63
2023/12/14 13:01:28;;;;;;;1.20;1.10;;;;;;;;;;5093951;28;20206;-63
2023/12/14 13:03:56;;;;;;;1.00;0.90;;;;;;;;;;5094983;28;20204;-63
2023/12/14 13:06:25;;;;;;;1.25;0.98;;;;;;;;;;5095574;28;20272;-63
2023/12/14 13:08:53;;;;;;;2.20;1.27;;;;;;;;;;5094949;28;20215;-63
2023/12/14 13:11:20;;;;;;;1.30;1.20;;;;;;;;;;5094759;28;20248;-64
2023/12/14 13:13:47;;;;;;;1.30;1.20;;;;;;;;;;5095224;28;20203;-63
2023/12/14 13:16:16;;;;;;;1.75;1.05;;;;;;;;;;5094758;28;20203;-63
2023/12/14 13:18:45;;;;;;;1.08;0.93;;;;;;;;;;5094236;28;20225;-63
2023/12/14 13:21:13;;;;;;;1.48;0.90;;;;;;;;;;5094500;28;20203;-63
2023/12/14 13:23:40;;;;;;;1.27;1.02;;;;;;;;;;5094534;28;20222;-63
2023/12/14 13:26:08;;;;;;;1.10;1.00;;;;;;;;;;5094968;28;20211;-63
2023/12/14 13:28:36;;;;;;;1.30;1.10;;;;;;;;;;5093936;28;20658;-63
2023/12/14 13:31:03;;;;;;;1.17;1.02;;;;;;;;;;5094426;28;20222;-63
2023/12/14 13:33:30;;;;;;;1.05;0.95;;;;;;;;;;5094055;28;20218;-63
2023/12/14 13:35:59;;;;;;;1.20;1.00;;;;;;;;;;5094535;28;20269;-63
2023/12/14 13:38:26;;;;;;;1.23;1.00;;;;;;;;;;5092949;28;20200;-63
2023/12/14 13:40:54;;;;;;;1.35;1.10;;;;;;;;;;5094239;28;20652;-63
2023/12/14 13:43:21;;;;;;;1.48;1.30;;;;;;;;;;5093730;28;20199;-63
2023/12/14 13:45:52;;;;;;;1.10;1.00;;;;;;;;;;5095011;28;20284;-63
2023/12/14 13:48:20;;;;;;;1.33;1.00;;;;;;;;;;5094229;28;20304;-63
2023/12/14 13:50:47;;;;;;;1.40;1.10;;;;;;;;;;5094283;28;20203;-63
2023/12/14 13:53:16;;;;;;;1.45;1.00;;;;;;;;;;5094058;28;20204;-63
2023/12/14 13:55:43;;;;;;;1.20;1.10;;;;;;;;;;5093038;28;20199;-63
2023/12/14 13:58:11;;;;;;;1.20;1.10;;;;;;;;;;5093304;28;20242;-63
2023/12/14 14:00:38;;;;;;;1.30;1.20;;;;;;;;;;5094021;28;20226;-63
2023/12/14 14:03:06;;;;;;;1.23;0.90;;;;;;;;;;5093543;28;20211;-63
2023/12/14 14:05:33;;;;;;;1.10;1.00;;;;;;;;;;5094021;28;20208;-63
2023/12/14 14:08:01;;;;;;;1.20;1.10;;;;;;;;;;5093320;28;20269;-63
2023/12/14 14:10:30;;;;;;;0.80;0.80;;;;;;;;;;5073477;28;20204;-64
2023/12/14 14:12:57;;;;;;;1.25;0.90;;;;;;;;;;5073293;28;20212;-63
2023/12/14 14:15:25;;;;;;;1.08;0.98;;;;;;;;;;5074349;28;20554;-63
2023/12/14 14:17:54;;;;;;;1.00;1.00;;;;;;;;;;5073567;28;20227;-63
2023/12/14 14:20:22;;;;;;;1.67;1.05;;;;;;;;;;5073051;28;20698;-63
2023/12/14 14:22:49;;;;;;;0.98;0.88;;;;;;;;;;5073739;28;20243;-63
2023/12/14 14:25:16;;;;;;;0.80;0.68;;;;;;;;;;5074129;28;20200;-63
2023/12/14 14:27:47;;;;;;;1.23;1.10;;;;;;;;;;5074229;28;20205;-63
2023/12/14 14:30:15;;;;;;;1.10;1.00;;;;;;;;;;5074305;28;20275;-62
2023/12/14 14:32:43;;;;;;;0.90;0.90;;;;;;;;;;5073764;28;20204;-63
2023/12/14 14:35:10;;;;;;;1.20;1.10;;;;;;;;;;5075585;28;20200;-63
2023/12/14 14:37:37;;;;;;;1.02;0.90;;;;;;;;;;5077712;28;20310;-63
2023/12/14 14:40:06;;;;;;;1.00;0.90;;;;;;;;;;5076842;28;20200;-63
2023/12/14 14:42:33;;;;;;;1.00;1.00;;;;;;;;;;5077385;28;20200;-63
2023/12/14 14:45:02;;;;;;;0.88;0.70;;;;;;;;;;5076930;28;20204;-63
2023/12/14 14:47:29;;;;;;;0.95;0.90;;;;;;;;;;5077323;28;20208;-63
2023/12/14 14:50:02;;;;;;;1.10;1.00;;;;;;;;;;5076265;28;20220;-63
2023/12/14 14:52:30;;;;;;;0.95;0.73;;;;;;;;;;5076356;28;20204;-63
2023/12/14 14:54:58;;;;;;;1.10;1.00;;;;;;;;;;5076286;28;20204;-63
2023/12/14 14:57:25;;;;;;;0.80;0.73;;;;;;;;;;5075703;28;20617;-63
2023/12/14 14:59:52;;;;;;;0.70;0.70;;;;;;;;;;5075756;28;20248;-63
2023/12/14 15:02:22;;;;;;;1.10;1.00;;;;;;;;;;5075415;28;20204;-63
2023/12/14 15:04:49;;;;;;;0.82;0.82;;;;;;;;;;5075130;28;20222;-62
2023/12/14 15:07:17;;;;;;;1.00;0.90;;;;;;;;;;5075594;28;20208;-63
2023/12/14 15:09:44;;;;;;;0.90;0.90;;;;;;;;;;5075656;28;20262;-63
2023/12/14 15:12:11;;;;;;;0.80;0.77;;;;;;;;;;5075989;28;20208;-63
2023/12/14 15:14:39;;;;;;;0.80;0.80;;;;;;;;;;5076035;28;20640;-63
2023/12/14 15:17:06;;;;;;;0.98;0.80;;;;;;;;;;5075192;28;20205;-63
2023/12/14 15:19:35;;;;;;;1.17;0.80;;;;;;;;;;5076016;28;20851;-63
2023/12/14 15:22:02;;;;;;;0.68;0.65;;;;;;;;;;5074864;28;20647;-63
2023/12/14 15:24:30;;;;;;;0.73;0.73;;;;;;;;;;5075867;28;20486;-63
2023/12/14 15:26:58;;;;;;;0.90;0.90;;;;;;;;;;5076119;28;20196;-63
2023/12/14 15:29:25;;;;;;;0.60;0.60;;;;;;;;;;5076155;28;20254;-63
2023/12/14 15:31:53;;;;;;;0.95;0.90;;;;;;;;;;5076442;28;20205;-63
2023/12/14 15:34:20;;;;;;;0.85;0.85;;;;;;;;;;5076389;28;20207;-63